Accueil
METAR-TAF:

METAR-TAF

Aéroports :

Aéroport international de Berne

Berne, Suisse

latitude: 46-55N, longitude: 007-30E, altitude: 505 m

Observation

Le bulletin a été fait il y a 20 minutes, à 05:20 UTC
Vent 5 kt de ouest/nord-ouest
Température 0°C
Humidité 93%
Pression 1023 hPa
Visibilité: 6000 m
Quelques nuages à une hauteur de 700 ft
Ciel couvert à une hauteur de 1200 ft

METAR: LSZB 300520Z AUTO 29005KT 6000 FEW007 OVC012 00/M01 Q1023

Heure: 06:40 (05:40 UTC)

Prévision

Le bulletin a été fait il y a 15 minutes, à 05:25 UTC
Prévision valable du 30 à 06 UTC au 30 à 15 UTC
Vent 5 kt de nord/nord-ouest
Visibilité: 6000 m
Ciel couvert à une hauteur de 1200 ft

TAF: LSZB 300525Z 3006/3015 33005KT 6000 OVC012

Observations et prévisions météorologiques de plus de 4000 aéroports (messages METAR et TAF).

Les stations disponibles sont représentées par des disques jaunes et rouges sur la carte.

Passer la souris dessus pour voir le nom de la station.

Cliquer dessus pour voir les observations et prévisions météorologiques.

Pour changer de carte: cliquez sur les boutons verts avec une croix noire pour zoomer, sur le bouton vert avec un tiret pour effectuer un zoom arrière, ou sur les flèches vertes pour les cartes adjacentes.


METAR-TAF: